Time;durP1;ratioP1;P1;durP2;ratioP2;P2;SDS_P1;SDS_P2;PMS_P1;PMS_P2;Temp;Humidity;BMP_temperature;BMP_pressure;BME280_temperature;BME280_humidity;BME280_pressure;Samples;Min_cycle;Max_cycle;Signal;HPM_P1;HPM_P2
2022/05/23 00:02:07;;;;;;;9.43;4.37;;;;;;;15.38;52.46;99623.44;4390937;32;32750;-90
2022/05/23 00:04:36;;;;;;;4.70;3.67;;;;;;;15.37;52.68;99627.91;4391648;32;32878;-90
2022/05/23 00:07:15;;;;;;;7.40;3.28;;;;;;;15.39;52.75;99619.84;4378547;32;33391;-90
2022/05/23 00:09:44;;;;;;;4.75;2.87;;;;;;;15.33;53.15;99620.22;4364812;32;34988;-90
2022/05/23 00:12:12;;;;;;;4.07;2.25;;;;;;;15.24;53.02;99620.84;4378860;32;33647;-90
2022/05/23 00:14:43;;;;;;;4.55;1.70;;;;;;;15.27;52.56;99617.97;4378375;32;33212;-90
2022/05/23 00:17:12;;;;;;;3.28;1.75;;;;;;;15.40;52.13;99621.53;4379147;32;33906;-89
2022/05/23 00:19:41;;;;;;;2.87;1.73;;;;;;;15.32;52.19;99619.37;4391837;32;33467;-89
2022/05/23 00:22:10;;;;;;;4.00;1.62;;;;;;;15.15;53.08;99617.00;4391329;32;33846;-90
2022/05/23 00:24:41;;;;;;;1.23;0.90;;;;;;;15.26;52.79;99613.63;4378503;32;33882;-89
2022/05/23 00:27:12;;;;;;;7.10;1.27;;;;;;;15.29;52.81;99618.75;4391444;32;32807;-91
2022/05/23 00:29:40;;;;;;;1.12;0.95;;;;;;;15.00;53.49;99617.97;4391780;32;31915;-90
2022/05/23 00:37:53;;;;;;;4.40;1.77;;;;;;;14.89;53.57;99616.00;4391804;32;32827;-91
2022/05/23 00:40:30;;;;;;;1.73;0.98;;;;;;;14.95;53.45;99610.28;4391988;32;33592;-91
2022/05/23 00:43:20;;;;;;;1.35;1.00;;;;;;;15.03;53.40;99608.00;4386810;32;32748;-89
2022/05/23 00:45:54;;;;;;;1.27;1.15;;;;;;;15.06;53.46;99606.97;4367395;32;33327;-90
2022/05/23 00:48:26;;;;;;;2.90;1.42;;;;;;;15.02;53.58;99614.28;4376070;32;34333;-91
2022/05/23 00:51:19;;;;;;;2.45;1.35;;;;;;;14.65;54.56;99614.94;4371594;32;32750;-92
2022/05/23 00:54:05;;;;;;;2.00;1.37;;;;;;;14.67;54.14;99611.25;4357164;32;33320;-84
2022/05/23 00:56:44;;;;;;;2.45;1.08;;;;;;;15.27;52.69;99616.19;4374383;32;33603;-84
2022/05/23 00:59:20;;;;;;;2.03;0.93;;;;;;;15.26;52.61;99614.47;4372751;32;32995;-84
2022/05/23 01:01:48;;;;;;;2.15;1.27;;;;;;;15.01;53.39;99615.22;4362196;32;34222;-84
2022/05/23 01:04:17;;;;;;;2.12;1.17;;;;;;;14.81;54.22;99615.66;4362403;32;33952;-84
2022/05/23 01:06:45;;;;;;;2.33;1.62;;;;;;;14.98;53.51;99617.22;4374515;32;33804;-84
2022/05/23 01:09:12;;;;;;;1.42;0.95;;;;;;;14.99;53.54;99614.47;4362200;32;33834;-84
2022/05/23 01:11:40;;;;;;;1.75;1.35;;;;;;;14.89;53.89;99610.69;4374656;32;32591;-84
2022/05/23 01:14:08;;;;;;;1.83;1.15;;;;;;;14.82;54.17;99614.72;4374566;32;32706;-84
2022/05/23 01:16:37;;;;;;;3.12;1.50;;;;;;;14.82;54.33;99612.91;4366467;32;34650;-84
2022/05/23 01:19:05;;;;;;;2.10;1.23;;;;;;;14.84;53.80;99612.81;4349661;32;32066;-84
2022/05/23 01:21:55;;;;;;;2.35;1.40;;;;;;;14.89;53.66;99613.34;4361923;32;33218;-84
2022/05/23 01:24:50;;;;;;;3.70;1.42;;;;;;;14.87;53.86;99617.09;4382569;32;33512;-83
2022/05/23 01:27:18;;;;;;;5.45;1.40;;;;;;;14.71;54.04;99617.19;4366216;32;35123;-83
2022/05/23 01:29:46;;;;;;;5.68;2.15;;;;;;;14.82;53.67;99614.72;4360647;32;33965;-84
2022/05/23 01:32:14;;;;;;;2.95;1.15;;;;;;;14.86;53.63;99610.91;4362407;32;33441;-83
2022/05/23 01:34:44;;;;;;;2.80;0.98;;;;;;;14.77;53.98;99609.69;4374181;32;32902;-83
2022/05/23 01:37:12;;;;;;;1.73;1.15;;;;;;;14.62;54.83;99601.81;4362576;32;33894;-83
2022/05/23 01:39:43;;;;;;;2.65;1.10;;;;;;;14.71;54.66;99591.47;4367076;32;32937;-83
2022/05/23 01:42:12;;;;;;;1.23;1.12;;;;;;;14.45;55.00;99593.09;4386669;32;34686;-83
2022/05/23 01:44:42;;;;;;;3.95;1.35;;;;;;;14.38;55.07;99589.09;4371488;32;33047;-83
2022/05/23 01:47:12;;;;;;;4.03;1.30;;;;;;;14.48;54.61;99584.97;4370698;32;34282;-83
2022/05/23 01:49:41;;;;;;;3.00;1.10;;;;;;;14.43;54.60;99587.03;4369945;32;34254;-84
2022/05/23 01:52:13;;;;;;;2.72;1.23;;;;;;;14.31;55.05;99590.44;4379465;32;34602;-82
2022/05/23 01:54:41;;;;;;;1.58;0.82;;;;;;;14.38;54.90;99588.25;4364858;32;34699;-82
2022/05/23 01:57:12;;;;;;;1.30;1.10;;;;;;;14.33;55.26;99586.75;4378723;32;34766;-82
2022/05/23 02:02:26;;;;;;;2.42;1.02;;;;;;;14.41;54.96;99583.63;4364408;32;33058;-82
2022/05/23 02:04:55;;;;;;;2.05;1.15;;;;;;;14.17;55.80;99585.16;4373020;32;33288;-83
2022/05/23 02:07:23;;;;;;;2.30;1.27;;;;;;;14.17;56.03;99574.53;4378010;32;32381;-83
2022/05/23 02:09:50;;;;;;;3.75;1.40;;;;;;;14.22;55.71;99581.25;4383540;32;32199;-83
2022/05/23 02:12:19;;;;;;;3.22;1.17;;;;;;;14.19;55.60;99580.59;4368988;32;33316;-83
2022/05/23 02:14:48;;;;;;;1.80;1.00;;;;;;;14.19;55.44;99581.44;4359210;32;34344;-83
2022/05/23 02:17:17;;;;;;;5.60;1.65;;;;;;;14.01;56.00;99586.09;4357985;32;32942;-84
2022/05/23 02:19:46;;;;;;;1.10;1.00;;;;;;;14.01;55.89;99582.59;4369308;32;32636;-85
2022/05/23 02:22:14;;;;;;;1.62;1.10;;;;;;;14.01;55.83;99586.09;4386580;32;33091;-85
2022/05/23 02:24:43;;;;;;;1.62;1.25;;;;;;;14.00;55.89;99588.81;4383400;32;33956;-85
2022/05/23 02:27:11;;;;;;;1.75;1.08;;;;;;;13.94;56.31;99589.22;4363969;32;32719;-85
2022/05/23 02:29:39;;;;;;;3.75;1.42;;;;;;;13.84;56.34;99583.59;4383351;32;33813;-85
2022/05/23 02:32:10;;;;;;;3.05;1.23;;;;;;;13.89;56.71;99586.81;4374443;32;33672;-85
2022/05/23 02:34:39;;;;;;;4.95;1.20;;;;;;;13.90;56.19;99580.56;4362011;32;34201;-85
2022/05/23 02:37:09;;;;;;;2.30;1.30;;;;;;;13.98;55.78;99580.13;4371028;32;33757;-85
2022/05/23 02:39:38;;;;;;;1.85;1.20;;;;;;;13.92;56.02;99580.50;4368706;32;35133;-85
2022/05/23 02:42:07;;;;;;;2.50;1.15;;;;;;;13.92;55.77;99581.34;4370661;32;33293;-85
2022/05/23 02:44:36;;;;;;;2.55;1.70;;;;;;;13.78;55.98;99581.31;4360331;32;33893;-85
2022/05/23 02:47:04;;;;;;;5.25;1.45;;;;;;;13.87;55.68;99578.12;4369059;32;33915;-85
2022/05/23 02:49:33;;;;;;;1.42;1.33;;;;;;;13.93;55.64;99577.75;4358001;32;34046;-85
2022/05/23 02:52:05;;;;;;;1.42;1.15;;;;;;;13.61;56.85;99582.31;4392986;32;32476;-85
2022/05/23 02:54:35;;;;;;;2.08;1.20;;;;;;;13.75;56.08;99574.37;4371333;32;34372;-84
2022/05/23 02:57:03;;;;;;;1.52;1.12;;;;;;;13.68;56.32;99574.87;4372908;32;33189;-84
2022/05/23 02:59:31;;;;;;;1.48;1.10;;;;;;;13.56;56.24;99572.00;4370412;32;33665;-84
2022/05/23 03:04:47;;;;;;;1.50;1.23;;;;;;;13.54;57.01;99576.53;4372646;32;34532;-84
2022/05/23 03:07:15;;;;;;;2.60;1.00;;;;;;;13.53;56.70;99580.16;4375954;32;35095;-84
2022/05/23 03:09:46;;;;;;;4.83;1.50;;;;;;;13.50;56.58;99580.31;4377265;32;33579;-84
2022/05/23 03:12:17;;;;;;;3.97;1.58;;;;;;;13.65;56.56;99575.91;4378095;32;32206;-84
2022/05/23 03:14:44;;;;;;;3.50;1.60;;;;;;;13.48;56.96;99582.22;4366562;32;32810;-84
2022/05/23 03:17:13;;;;;;;1.75;1.27;;;;;;;13.50;57.39;99585.62;4373604;32;33730;-83
2022/05/23 03:19:45;;;;;;;3.50;1.23;;;;;;;13.50;57.59;99585.62;4357817;32;34263;-83
2022/05/23 03:28:01;;;;;;;2.03;1.30;;;;;;;13.35;57.89;99591.84;4360654;32;34575;-83
2022/05/23 03:30:30;;;;;;;2.97;1.80;;;;;;;13.52;57.32;99582.87;4364997;32;35565;-83
2022/05/23 03:32:59;;;;;;;3.50;1.65;;;;;;;13.53;57.26;99587.22;4372928;32;33811;-83
2022/05/23 03:35:29;;;;;;;2.78;1.75;;;;;;;13.33;58.95;99591.06;4381821;32;34327;-83
2022/05/23 03:37:59;;;;;;;2.72;1.40;;;;;;;13.50;58.79;99588.28;4368227;32;33721;-83
2022/05/23 03:40:29;;;;;;;1.25;1.15;;;;;;;13.74;57.92;99587.75;4373646;32;33835;-83
2022/05/23 03:43:00;;;;;;;1.77;1.25;;;;;;;13.66;58.44;99592.66;4372733;32;32986;-83
2022/05/23 03:45:30;;;;;;;2.95;1.50;;;;;;;13.88;57.73;99595.75;4377723;32;33421;-85
2022/05/23 03:47:58;;;;;;;2.10;1.62;;;;;;;13.84;57.58;99589.75;4370416;32;34429;-85
2022/05/23 03:50:27;;;;;;;4.43;1.80;;;;;;;14.06;57.04;99583.16;4365601;32;32909;-85
2022/05/23 03:52:56;;;;;;;2.12;1.42;;;;;;;14.20;57.00;99583.16;4365569;32;33024;-85
2022/05/23 03:55:26;;;;;;;3.65;1.70;;;;;;;14.24;57.05;99579.38;4365651;32;33533;-85
2022/05/23 03:57:57;;;;;;;2.90;2.00;;;;;;;14.38;56.27;99578.47;4364891;32;34239;-85
2022/05/23 04:00:25;;;;;;;3.50;1.90;;;;;;;14.48;56.56;99584.97;4372746;32;33029;-85
2022/05/23 04:02:55;;;;;;;4.60;2.20;;;;;;;14.45;56.76;99579.81;4359089;32;33378;-85
2022/05/23 04:05:24;;;;;;;7.50;2.80;;;;;;;14.84;55.12;99571.12;4368261;32;33764;-85
2022/05/23 04:07:53;;;;;;;4.47;2.10;;;;;;;14.78;55.18;99576.84;4353460;32;33802;-86
2022/05/23 04:10:25;;;;;;;3.92;1.62;;;;;;;14.94;54.83;99575.84;4361392;32;34173;-85
2022/05/23 04:12:53;;;;;;;2.03;1.50;;;;;;;15.25;54.06;99574.69;4377286;32;32646;-85
2022/05/23 04:15:24;;;;;;;4.05;1.87;;;;;;;15.22;54.41;99580.19;4365688;32;34479;-84
2022/05/23 04:17:54;;;;;;;3.17;1.73;;;;;;;15.37;53.86;99574.69;4390034;32;34996;-84
2022/05/23 04:20:23;;;;;;;6.07;2.33;;;;;;;15.68;52.79;99569.16;4374906;32;34748;-83
2022/05/23 04:23:02;;;;;;;3.00;1.95;;;;;;;15.81;52.77;99578.03;4357897;32;34405;-84
2022/05/23 04:25:45;;;;;;;2.87;1.62;;;;;;;15.84;53.12;99569.81;4381005;32;33630;-84
2022/05/23 04:28:14;;;;;;;1.90;1.62;;;;;;;15.94;53.02;99570.88;4377519;32;33932;-84
2022/05/23 04:30:43;;;;;;;7.40;1.92;;;;;;;15.85;53.32;99568.84;4363598;32;34262;-85
2022/05/23 04:36:02;;;;;;;3.22;1.55;;;;;;;16.27;51.70;99564.13;4367702;32;34568;-84
2022/05/23 04:38:30;;;;;;;4.12;1.90;;;;;;;16.41;50.52;99565.81;4352909;32;33478;-85
2022/05/23 04:40:59;;;;;;;3.28;2.10;;;;;;;16.44;49.77;99561.13;4365520;32;33735;-85
2022/05/23 04:46:04;;;;;;;5.97;1.95;;;;;;;16.62;48.52;99564.28;4353375;32;33120;-86
2022/05/23 04:51:28;;;;;;;3.80;1.87;;;;;;;16.62;49.33;99572.28;4382164;32;33930;-88
2022/05/23 04:53:59;;;;;;;;;;;;;;;16.67;50.18;99572.81;4372372;32;31704;-88
2022/05/23 04:56:29;;;;;;;7.78;1.98;;;;;;;16.84;50.32;99580.44;4382351;32;33203;-88
2022/05/23 04:58:58;;;;;;;2.97;2.22;;;;;;;16.88;50.28;99575.75;4391193;32;32941;-90
2022/05/23 05:01:48;;;;;;;3.10;1.35;;;;;;;16.96;49.73;99583.19;4372397;32;32635;-89
2022/05/23 05:04:17;;;;;;;4.00;2.42;;;;;;;17.04;49.37;99579.00;4371834;32;34080;-88
2022/05/23 05:06:55;;;;;;;5.32;1.83;;;;;;;17.09;48.96;99590.19;4375128;32;32746;-88
2022/05/23 05:09:25;;;;;;;3.35;1.60;;;;;;;17.41;49.67;99587.75;4388010;32;34788;-89
2022/05/23 05:11:58;;;;;;;5.80;1.60;;;;;;;17.60;48.49;99583.69;4371769;32;34368;-89
2022/05/23 05:14:27;;;;;;;4.40;1.80;;;;;;;17.55;48.08;99580.53;4355568;32;33881;-88
2022/05/23 05:17:00;;;;;;;7.62;2.25;;;;;;;18.00;48.19;99592.22;4379247;32;32400;-88
2022/05/23 05:19:34;;;;;;;8.15;1.62;;;;;;;18.10;47.55;99590.53;4370510;32;33197;-89
2022/05/23 05:22:07;;;;;;;5.82;1.50;;;;;;;18.47;45.25;99592.97;4374319;32;33564;-88
2022/05/23 05:24:38;;;;;;;2.65;1.77;;;;;;;18.58;44.55;99582.25;4376380;32;32131;-89
2022/05/23 05:27:11;;;;;;;3.45;1.62;;;;;;;18.45;46.16;99576.19;4375761;32;33218;-89
2022/05/23 05:29:39;;;;;;;2.87;1.48;;;;;;;18.36;45.51;99572.41;4366919;32;32973;-88
2022/05/23 05:32:28;;;;;;;3.12;1.27;;;;;;;18.41;45.15;99574.72;4375056;32;32872;-88
2022/05/23 05:35:03;;;;;;;2.62;1.50;;;;;;;18.71;44.89;99576.81;4361600;32;32774;-88
2022/05/23 05:37:34;;;;;;;4.05;1.52;;;;;;;18.78;44.73;99579.81;4380513;32;34146;-89
2022/05/23 05:40:15;;;;;;;4.40;1.42;;;;;;;18.88;43.61;99580.78;4380414;32;32783;-89
2022/05/23 05:43:35;;;;;;;4.32;2.08;;;;;;;19.38;42.42;99578.44;4374374;32;32603;-89
2022/05/23 05:46:15;;;;;;;3.25;1.33;;;;;;;19.37;41.54;99582.06;4384695;32;32323;-88
2022/05/23 05:48:46;;;;;;;2.25;1.42;;;;;;;19.50;42.88;99577.38;4360934;32;34833;-88
2022/05/23 05:51:17;;;;;;;4.15;1.48;;;;;;;19.41;42.20;99588.84;4369791;32;33059;-89
2022/05/23 05:53:49;;;;;;;2.42;1.92;;;;;;;19.59;43.20;99578.44;4368638;32;33484;-89
2022/05/23 05:56:18;;;;;;;1.45;1.25;;;;;;;19.91;42.19;99583.78;4367000;32;31961;-89
2022/05/23 05:58:48;;;;;;;6.28;1.52;;;;;;;20.06;42.38;99584.28;4366197;32;33223;-89
2022/05/23 06:01:17;;;;;;;1.27;1.02;;;;;;;19.97;41.59;99577.88;4360839;32;32747;-89
2022/05/23 06:03:46;;;;;;;0.80;0.80;;;;;;;20.05;41.18;99583.44;4386125;32;33804;-92
2022/05/23 06:12:36;;;;;;;1.92;1.70;;;;;;;20.34;36.15;99585.41;4370823;32;33977;-92
2022/05/23 06:15:32;;;;;;;1.52;0.70;;;;;;;20.53;36.04;99590.88;4356321;32;32480;-92
2022/05/23 06:18:04;;;;;;;2.33;0.70;;;;;;;20.51;35.85;99586.62;4358015;32;33482;-91
2022/05/23 06:26:01;;;;;;;3.15;1.33;;;;;;;20.73;35.29;99590.94;4339033;32;34786;-91
2022/05/23 06:29:08;;;;;;;1.10;0.88;;;;;;;20.23;36.19;99598.91;4312864;33;31796;-94
2022/05/23 06:32:05;;;;;;;2.87;1.23;;;;;;;20.68;35.74;99592.19;4332003;32;33941;-87
2022/05/23 06:34:36;;;;;;;2.10;0.80;;;;;;;20.69;36.65;99583.16;4362933;32;33295;-89
2022/05/23 06:37:03;;;;;;;1.20;0.60;;;;;;;20.87;35.99;99577.97;4339430;33;34450;-88
2022/05/23 06:39:31;;;;;;;1.05;0.93;;;;;;;20.80;37.62;99576.84;4364287;32;33394;-91
2022/05/23 06:42:03;;;;;;;6.23;1.63;;;;;;;21.11;36.52;99579.44;4358947;32;32626;-89
2022/05/23 06:44:37;;;;;;;1.85;0.80;;;;;;;21.13;35.87;99572.94;4369483;32;33504;-90
2022/05/23 06:47:20;;;;;;;7.80;1.55;;;;;;;21.12;35.06;99576.59;4379419;32;34582;-89
2022/05/23 06:49:55;;;;;;;1.48;0.77;;;;;;;21.41;34.91;99565.06;4380202;32;33000;-90
2022/05/23 06:52:25;;;;;;;6.10;1.45;;;;;;;21.74;34.97;99558.37;4380801;32;32726;-89
2022/05/23 06:54:55;;;;;;;1.42;0.82;;;;;;;21.50;35.04;99558.81;4393393;32;33263;-89
2022/05/23 06:57:40;;;;;;;3.67;1.10;;;;;;;21.43;35.22;99568.47;4386553;32;33599;-90
2022/05/23 07:00:14;;;;;;;6.62;1.40;;;;;;;21.65;34.75;99554.75;4396757;32;34087;-89
2022/05/23 07:02:43;;;;;;;2.28;1.25;;;;;;;22.01;35.35;99557.63;4388386;32;32517;-89
2022/05/23 07:14:09;;;;;;;1.35;1.00;;;;;;;22.94;34.31;99548.59;4386035;32;34140;-90
2022/05/23 07:16:38;;;;;;;7.65;0.82;;;;;;;22.70;32.67;99543.75;4375955;32;33169;-91
2022/05/23 07:19:07;;;;;;;2.40;0.98;;;;;;;22.92;32.62;99541.66;4391873;32;32693;-90
2022/05/23 07:21:36;;;;;;;2.45;0.90;;;;;;;22.92;33.16;99539.81;4397114;32;33103;-90
2022/05/23 07:24:16;;;;;;;4.90;0.90;;;;;;;22.65;32.33;99540.69;4383986;32;32553;-93
2022/05/23 07:27:31;;;;;;;4.95;0.90;;;;;;;22.55;32.65;99539.88;4359737;32;34459;-92
2022/05/23 07:30:24;;;;;;;2.78;1.10;;;;;;;22.75;32.71;99530.69;4389432;32;33645;-92
2022/05/23 07:33:01;;;;;;;3.50;0.70;;;;;;;22.78;32.66;99529.53;4391929;32;33298;-90
2022/05/23 07:35:37;;;;;;;1.87;0.98;;;;;;;23.45;32.22;99527.34;4395147;32;32213;-93
2022/05/23 07:38:29;;;;;;;3.47;0.70;;;;;;;22.59;32.42;99529.66;4349640;32;32936;-91
2022/05/23 07:41:18;;;;;;;4.30;0.80;;;;;;;22.89;31.89;99531.22;4343088;32;188675;-92
2022/05/23 07:44:13;;;;;;;2.65;0.95;;;;;;;23.13;32.46;99522.53;4362737;32;33652;-90
2022/05/23 07:47:06;;;;;;;5.12;1.12;;;;;;;22.91;31.93;99523.81;4361597;32;32573;-90
2022/05/23 07:49:59;;;;;;;1.27;0.80;;;;;;;22.49;31.75;99529.72;4332992;33;33009;-90
2022/05/23 08:02:44;;;;;;;1.20;0.80;;;;;;;24.07;31.05;99511.97;4414857;32;32369;-90
2022/05/23 08:05:48;;;;;;;5.97;0.82;;;;;;;23.68;29.96;99506.16;4376905;32;34673;-90
2022/05/23 08:08:48;;;;;;;3.42;0.70;;;;;;;24.03;32.28;99510.59;4354116;32;32890;-90
2022/05/23 08:11:59;;;;;;;1.87;1.00;;;;;;;24.14;29.23;99504.06;4348117;32;31992;-91
2022/05/23 08:14:46;;;;;;;1.67;0.88;;;;;;;23.70;30.45;99498.78;4399913;32;33097;-89
2022/05/23 08:17:15;;;;;;;2.85;0.70;;;;;;;23.57;30.99;99498.31;4402137;32;33570;-91
2022/05/23 08:20:10;;;;;;;1.80;1.00;;;;;;;23.76;30.83;99498.97;4361460;32;34327;-90
2022/05/23 08:22:54;;;;;;;6.32;0.82;;;;;;;24.01;30.71;99494.56;4338787;32;32867;-94
2022/05/23 08:25:51;;;;;;;1.48;0.60;;;;;;;24.19;29.47;99499.03;4380865;32;34151;-91
2022/05/23 08:28:34;;;;;;;3.08;0.75;;;;;;;24.23;28.66;99501.25;4388355;32;33883;-90
2022/05/23 08:31:25;;;;;;;3.75;0.62;;;;;;;24.14;28.80;99494.12;4357526;32;32941;-85
2022/05/23 08:34:01;;;;;;;2.78;0.60;;;;;;;24.00;27.84;99486.62;4358914;32;32412;-86
2022/05/23 08:36:31;;;;;;;1.83;0.60;;;;;;;23.95;27.79;99489.81;4359628;32;34208;-86
2022/05/23 08:39:04;;;;;;;0.70;0.60;;;;;;;23.92;33.61;99487.41;4367907;32;31988;-87
2022/05/23 08:41:39;;;;;;;1.73;0.85;;;;;;;24.55;29.55;99486.22;4358562;32;33587;-86
2022/05/23 08:44:44;;;;;;;4.00;0.85;;;;;;;24.72;28.62;99482.53;4350564;32;32998;-87
2022/05/23 08:47:32;;;;;;;1.00;1.00;;;;;;;24.52;28.06;99467.66;4346797;32;33561;-87
2022/05/23 08:50:12;;;;;;;3.95;0.98;;;;;;;24.53;29.06;99475.56;4360063;32;33507;-86
2022/05/23 08:52:49;;;;;;;1.42;0.68;;;;;;;24.14;28.83;99472.53;4357105;32;32921;-88
2022/05/23 08:55:28;;;;;;;1.87;1.02;;;;;;;24.34;28.39;99464.19;4357144;32;33333;-86
2022/05/23 08:58:12;;;;;;;3.00;1.17;;;;;;;24.61;30.56;99465.81;4369842;32;33910;-86
2022/05/23 09:00:45;;;;;;;1.33;0.80;;;;;;;24.63;30.32;99459.22;4368927;32;33143;-87
2022/05/23 09:03:25;;;;;;;7.70;0.82;;;;;;;23.68;29.49;99453.09;4358593;32;32372;-89
2022/05/23 09:06:09;;;;;;;2.92;0.70;;;;;;;23.90;29.38;99456.25;4355720;32;33466;-86
2022/05/23 09:08:45;;;;;;;6.12;0.80;;;;;;;23.31;30.43;99460.53;4348320;32;32810;-86
2022/05/23 09:11:28;;;;;;;5.55;0.90;;;;;;;24.03;29.00;99453.97;4369252;32;34001;-86
2022/05/23 09:13:59;;;;;;;3.45;0.98;;;;;;;23.84;29.36;99454.22;4359296;32;33934;-86
2022/05/23 09:16:32;;;;;;;3.05;0.60;;;;;;;24.88;29.28;99443.94;4357712;32;34170;-89
2022/05/23 09:19:06;;;;;;;1.75;1.15;;;;;;;24.60;29.32;99448.78;4347213;32;32689;-87
2022/05/23 09:24:21;;;;;;;4.90;1.10;;;;;;;24.66;28.27;99453.50;4368518;32;33849;-89
2022/05/23 09:26:55;;;;;;;7.32;1.10;;;;;;;24.70;29.65;99449.47;4378434;32;33188;-89
2022/05/23 09:29:25;;;;;;;3.20;1.00;;;;;;;25.34;28.56;99451.56;4373880;32;33360;-89
2022/05/23 09:31:57;;;;;;;2.10;0.73;;;;;;;25.33;27.44;99444.47;4361981;32;33917;-89
2022/05/23 09:34:37;;;;;;;1.12;0.62;;;;;;;25.48;26.64;99448.16;4368658;32;34856;-88
2022/05/23 09:37:22;;;;;;;7.28;1.20;;;;;;;25.92;27.87;99450.44;4348096;32;32633;-89
2022/05/23 09:39:59;;;;;;;1.83;0.50;;;;;;;26.06;28.46;99441.59;4348964;32;33276;-91
2022/05/23 09:48:24;;;;;;;2.12;0.73;;;;;;;25.59;26.53;99444.25;4376178;32;33636;-89
2022/05/23 09:51:02;;;;;;;2.20;0.83;;;;;;;25.42;27.60;99441.59;4372490;32;32848;-87
2022/05/23 09:53:32;;;;;;;3.95;0.90;;;;;;;25.24;27.29;99436.34;4383646;32;32879;-88
2022/05/23 09:56:34;;;;;;;4.93;1.35;;;;;;;25.43;26.68;99431.63;4366651;32;33233;-88
2022/05/23 09:59:17;;;;;;;1.67;0.82;;;;;;;26.07;27.29;99431.66;4368057;32;32731;-88
2022/05/23 10:01:48;;;;;;;3.87;0.88;;;;;;;25.88;26.49;99432.91;4348200;32;33240;-88
2022/05/23 10:04:23;;;;;;;3.42;1.08;;;;;;;26.15;26.40;99429.72;4359676;32;33712;-88
2022/05/23 10:06:53;;;;;;;3.75;1.02;;;;;;;25.70;26.25;99424.97;4329548;32;32409;-88
2022/05/23 10:09:35;;;;;;;4.28;1.00;;;;;;;25.76;26.74;99419.75;4337044;32;32467;-88
2022/05/23 10:12:08;;;;;;;1.70;0.80;;;;;;;26.12;27.75;99419.28;4366777;32;33585;-89
2022/05/23 10:14:46;;;;;;;5.70;0.95;;;;;;;25.35;27.05;99437.03;4354621;32;32665;-88
2022/05/23 10:17:31;;;;;;;3.15;0.80;;;;;;;25.91;26.20;99424.41;4348212;32;33863;-88
2022/05/23 10:20:27;;;;;;;8.60;1.15;;;;;;;25.71;25.68;99418.53;4358548;32;32030;-88
2022/05/23 10:23:04;;;;;;;0.88;0.70;;;;;;;26.11;26.97;99423.00;4365473;32;34097;-88
2022/05/23 10:25:51;;;;;;;1.65;0.70;;;;;;;26.60;24.42;99417.34;4349215;32;34402;-88
2022/05/23 10:28:26;;;;;;;1.67;1.05;;;;;;;26.85;24.96;99415.31;4359366;32;32993;-88
2022/05/23 10:31:00;;;;;;;3.92;1.00;;;;;;;27.49;25.93;99404.09;4369476;32;33128;-87
2022/05/23 10:33:34;;;;;;;6.32;1.48;;;;;;;27.85;24.27;99411.50;4343342;32;32891;-88
2022/05/23 10:36:09;;;;;;;1.48;0.62;;;;;;;27.59;22.25;99399.25;4337297;32;32869;-89
2022/05/23 10:44:24;;;;;;;1.00;0.90;;;;;;;27.31;23.54;99399.84;4354908;32;33061;-90
2022/05/23 10:47:08;;;;;;;3.20;1.10;;;;;;;27.78;22.59;99400.59;4330471;32;33175;-88
2022/05/23 10:50:03;;;;;;;1.23;0.80;;;;;;;27.37;21.99;99397.44;4342689;32;32705;-88
2022/05/23 10:52:51;;;;;;;1.05;0.60;;;;;;;27.38;24.71;99389.09;4360864;32;33430;-89
2022/05/23 10:55:30;;;;;;;1.25;1.10;;;;;;;26.86;23.93;99389.88;4348414;32;33173;-89
2022/05/23 10:58:14;;;;;;;1.73;0.73;;;;;;;27.51;21.94;99377.63;4330744;32;33400;-89
2022/05/23 11:00:49;;;;;;;1.85;0.70;;;;;;;27.70;23.37;99382.50;4352806;32;34081;-89
2022/05/23 11:03:24;;;;;;;2.90;0.88;;;;;;;27.93;24.12;99370.72;4355809;32;32521;-88
2022/05/23 11:06:05;;;;;;;2.37;1.10;;;;;;;26.79;25.55;99365.41;4349590;32;33208;-89
2022/05/23 11:08:42;;;;;;;3.65;0.90;;;;;;;26.87;25.14;99359.09;4329021;32;33622;-88
2022/05/23 11:11:25;;;;;;;2.30;0.85;;;;;;;26.93;26.55;99358.34;4362288;32;33925;-89
2022/05/23 11:14:08;;;;;;;1.37;0.80;;;;;;;26.96;25.60;99351.72;4345184;32;33844;-88
2022/05/23 11:17:03;;;;;;;1.52;0.85;;;;;;;27.21;25.52;99352.38;4354214;32;33198;-88
2022/05/23 11:19:36;;;;;;;4.12;1.45;;;;;;;26.95;24.94;99355.44;4352792;32;34774;-87
2022/05/23 11:22:10;;;;;;;3.70;1.48;;;;;;;26.81;24.57;99349.81;4357056;32;33806;-88
2022/05/23 11:25:03;;;;;;;3.75;0.80;;;;;;;27.11;25.05;99354.47;4354386;32;32053;-87
2022/05/23 11:34:04;;;;;;;1.02;0.60;;;;;;;27.22;22.98;99352.19;4341116;32;33254;-88
2022/05/23 11:39:56;;;;;;;2.28;0.95;;;;;;;26.83;24.44;99351.50;4360953;32;33063;-89
2022/05/23 11:42:38;;;;;;;11.63;1.10;;;;;;;27.13;23.77;99356.00;4324997;33;32369;-90
2022/05/23 11:48:41;;;;;;;3.05;0.90;;;;;;;27.05;25.25;99347.91;4348395;33;31879;-89
2022/05/23 11:51:29;;;;;;;1.55;1.00;;;;;;;27.75;23.48;99342.09;4348605;32;33323;-89
2022/05/23 11:54:06;;;;;;;3.30;1.15;;;;;;;27.36;22.88;99346.97;4324034;33;33673;-91
2022/05/23 11:56:45;;;;;;;1.25;0.73;;;;;;;27.52;24.54;99331.34;4349222;32;33024;-90
2022/05/23 11:59:23;;;;;;;3.12;0.82;;;;;;;27.98;25.15;99335.72;4336584;33;33133;-91
2022/05/23 12:02:12;;;;;;;1.05;0.50;;;;;;;27.89;23.07;99329.56;4348323;32;32331;-91
2022/05/23 12:04:55;;;;;;;3.42;1.27;;;;;;;28.16;22.90;99341.56;4348450;32;32591;-92
2022/05/23 12:07:43;;;;;;;2.95;0.95;;;;;;;27.84;23.96;99342.00;4348877;32;33622;-91
2022/05/23 12:10:24;;;;;;;5.30;0.88;;;;;;;27.23;23.32;99342.16;4348337;32;32623;-90
2022/05/23 12:15:43;;;;;;;2.45;1.00;;;;;;;27.11;25.44;99349.94;4336662;32;32980;-92
2022/05/23 12:22:35;;;;;;;4.15;0.93;;;;;;;26.72;23.91;99342.75;4364444;32;35130;-90
2022/05/23 12:25:09;;;;;;;2.15;0.90;;;;;;;27.31;23.39;99333.97;4338315;32;32881;-89
2022/05/23 12:27:42;;;;;;;1.20;0.80;;;;;;;27.11;23.58;99328.25;4357123;32;33980;-90
2022/05/23 12:30:20;;;;;;;3.70;0.95;;;;;;;26.74;24.83;99321.78;4362945;32;33947;-91
2022/05/23 12:32:58;;;;;;;3.65;0.80;;;;;;;26.52;25.07;99311.81;4350993;32;32444;-90
2022/05/23 12:35:52;;;;;;;1.50;0.90;;;;;;;26.98;25.15;99306.31;4375290;32;32513;-90
2022/05/23 12:38:33;;;;;;;5.47;1.08;;;;;;;27.09;23.67;99303.19;4338310;32;33494;-91
2022/05/23 12:41:27;;;;;;;3.70;1.00;;;;;;;27.03;25.23;99314.75;4388297;32;33088;-94
2022/05/23 12:44:42;;;;;;;2.90;0.90;;;;;;;26.61;25.62;99310.72;4364913;32;32570;-89
2022/05/23 12:47:44;;;;;;;4.07;1.67;;;;;;;27.02;25.96;99310.34;4374954;32;34464;-89
2022/05/23 12:50:32;;;;;;;3.05;1.00;;;;;;;27.66;24.07;99299.81;4355117;32;32513;-89
2022/05/23 12:53:22;;;;;;;1.45;0.90;;;;;;;27.76;22.85;99294.97;4380288;32;32297;-89
2022/05/23 12:56:11;;;;;;;3.60;0.90;;;;;;;27.64;24.03;99285.59;4363254;32;32050;-89
2022/05/23 12:58:47;;;;;;;2.95;0.82;;;;;;;27.46;24.13;99288.72;4373876;32;32561;-90
2022/05/23 13:01:28;;;;;;;3.33;1.05;;;;;;;27.65;23.08;99291.87;4377394;32;33183;-89
2022/05/23 13:04:07;;;;;;;3.28;1.02;;;;;;;27.68;23.66;99280.62;4377847;32;34064;-90
2022/05/23 13:06:56;;;;;;;3.47;0.82;;;;;;;27.71;24.16;99281.12;4387805;32;33258;-93
2022/05/23 13:09:54;;;;;;;2.30;0.93;;;;;;;27.77;23.74;99276.81;4387243;32;36263;-92
2022/05/23 13:12:51;;;;;;;2.20;0.98;;;;;;;28.02;23.27;99266.47;4373758;32;33837;-93
2022/05/23 13:15:27;;;;;;;2.12;1.12;;;;;;;28.12;22.54;99258.84;4379199;32;33232;-93
2022/05/23 13:22:05;;;;;;;1.20;0.80;;;;;;;28.05;22.95;99256.03;4374516;32;34103;-94
2022/05/23 13:24:56;;;;;;;2.83;1.00;;;;;;;27.49;23.18;99255.81;4345668;32;33264;-91
2022/05/23 13:27:46;;;;;;;1.52;1.12;;;;;;;27.78;22.50;99254.09;4350617;32;33288;-96
2022/05/23 13:30:35;;;;;;;1.40;0.70;;;;;;;27.18;25.10;99253.28;4345435;32;32513;-90
2022/05/23 13:33:11;;;;;;;2.47;1.00;;;;;;;27.08;25.59;99247.31;4356534;32;32831;-90
2022/05/23 13:35:42;;;;;;;2.75;0.85;;;;;;;27.10;25.08;99245.25;4342352;32;34479;-88
2022/05/23 13:38:26;;;;;;;2.20;1.27;;;;;;;27.46;23.53;99244.50;4343778;32;33765;-90
2022/05/23 13:41:05;;;;;;;2.45;1.20;;;;;;;27.22;23.53;99248.34;4341487;32;32285;-89
2022/05/23 13:43:45;;;;;;;3.50;0.88;;;;;;;27.79;22.87;99243.03;4351838;32;34805;-89
2022/05/23 13:46:17;;;;;;;1.05;0.80;;;;;;;27.30;25.31;99232.81;4340264;32;33553;-93
2022/05/23 13:48:52;;;;;;;2.05;1.27;;;;;;;27.72;23.30;99233.97;4351840;32;32122;-93
2022/05/23 13:51:51;;;;;;;3.67;1.15;;;;;;;27.80;23.73;99225.72;4353676;32;33011;-93
2022/05/23 13:54:48;;;;;;;1.92;0.93;;;;;;;27.37;24.81;99234.78;4330829;32;33230;-93